Time;durP1;ratioP1;P1;durP2;ratioP2;P2;SDS_P1;SDS_P2;PMS_P1;PMS_P2;Temp;Humidity;BMP_temperature;BMP_pressure;BME280_temperature;BME280_humidity;BME280_pressure;Samples;Min_cycle;Max_cycle;Signal;HPM_P1;HPM_P2
2023/02/12 00:02:20;;;;;;;3.20;1.20;;;;;;;1.76;83.62;101741.84;107683;1252;81455;-60
2023/02/12 00:05:03;;;;;;;8.40;4.10;;;;;;;1.74;83.30;101740.20;107608;1256;97742;-61
2023/02/12 00:07:45;;;;;;;4.20;1.90;;;;;;;1.72;83.33;101739.09;107639;1256;88317;-61
2023/02/12 00:10:29;;;;;;;8.10;3.20;;;;;;;1.73;83.53;101742.92;107629;1252;94505;-57
2023/02/12 00:13:14;;;;;;;3.70;1.70;;;;;;;1.70;83.43;101747.20;107501;1254;80132;-57
2023/02/12 00:15:57;;;;;;;3.30;1.80;;;;;;;1.69;83.42;101751.73;107653;1253;83122;-58
2023/02/12 00:18:35;;;;;;;4.70;2.10;;;;;;;1.69;83.32;101762.02;107618;1254;98461;-58
2023/02/12 00:21:12;;;;;;;3.80;1.60;;;;;;;1.67;83.40;101771.21;107648;1255;87752;-60
2023/02/12 00:23:56;;;;;;;3.90;1.60;;;;;;;1.66;83.46;101785.81;107675;1256;92801;-61
2023/02/12 00:26:40;;;;;;;3.10;1.20;;;;;;;1.64;83.28;101790.42;107524;1254;81597;-57
2023/02/12 00:29:24;;;;;;;7.00;2.50;;;;;;;1.60;83.12;101798.67;107648;1252;83844;-57
2023/02/12 00:32:06;;;;;;;4.10;1.80;;;;;;;1.58;82.76;101798.64;107632;1254;97937;-58
2023/02/12 00:38:45;;;;;;;3.90;1.70;;;;;;;1.54;82.87;101798.15;107407;1257;92800;-61
2023/02/12 00:41:23;;;;;;;3.40;1.40;;;;;;;1.55;82.98;101795.42;107304;1256;77759;-54
2023/02/12 00:44:08;;;;;;;5.60;3.10;;;;;;;1.61;82.80;101799.83;107287;1259;82073;-57
2023/02/12 00:46:48;;;;;;;3.30;1.60;;;;;;;1.58;82.72;101805.51;107330;1257;98684;-61
2023/02/12 00:49:32;;;;;;;5.30;2.70;;;;;;;1.54;82.71;101808.30;107308;1257;87571;-60
2023/02/12 00:52:14;;;;;;;8.80;4.40;;;;;;;1.52;82.64;101811.80;107281;1257;94363;-61
2023/02/12 00:54:57;;;;;;;4.20;1.70;;;;;;;1.49;82.61;101821.21;107307;1256;80334;-58
2023/02/12 00:57:37;;;;;;;6.50;2.90;;;;;;;1.45;82.47;101821.48;107293;1257;80886;-57
2023/02/12 01:00:14;;;;;;;3.00;1.60;;;;;;;1.40;82.39;101827.84;107313;1259;96550;-58
2023/02/12 01:02:51;;;;;;;5.40;1.80;;;;;;;1.42;82.41;101823.64;107296;1259;88247;-58
2023/02/12 01:05:29;;;;;;;4.70;2.30;;;;;;;1.43;82.31;101834.89;107321;1259;95120;-62
2023/02/12 01:08:07;;;;;;;7.00;3.30;;;;;;;1.44;82.29;101841.63;107278;1256;79365;-61
2023/02/12 01:10:55;;;;;;;5.70;2.40;;;;;;;1.40;82.19;101845.71;107313;1257;82101;-61
2023/02/12 01:13:35;;;;;;;3.30;1.30;;;;;;;1.38;82.16;101854.40;107270;1259;99099;-58
2023/02/12 01:16:17;;;;;;;5.40;2.20;;;;;;;1.35;82.19;101855.98;107336;1259;88431;-59
2023/02/12 01:19:02;;;;;;;5.70;2.70;;;;;;;1.33;82.13;101855.08;107270;1257;95587;-60
2023/02/12 01:21:44;;;;;;;2.40;1.20;;;;;;;1.27;82.00;101854.36;107276;1257;79977;-57
2023/02/12 01:24:32;;;;;;;4.80;2.20;;;;;;;1.29;82.11;101861.00;107287;1259;82987;-59
2023/02/12 01:27:14;;;;;;;7.90;4.40;;;;;;;1.30;82.11;101870.73;107264;1257;97557;-59
2023/02/12 01:29:54;;;;;;;4.90;2.10;;;;;;;1.32;82.15;101872.71;107329;1259;88594;-60
2023/02/12 01:32:32;;;;;;;5.50;2.40;;;;;;;1.36;82.21;101869.99;107265;1257;95739;-61
2023/02/12 01:35:10;;;;;;;2.90;1.90;;;;;;;1.38;82.15;101877.09;107296;1257;79720;-58
2023/02/12 01:37:45;;;;;;;5.70;2.60;;;;;;;1.36;81.89;101880.60;107283;1259;81825;-57
2023/02/12 01:40:27;;;;;;;3.20;1.40;;;;;;;1.33;81.88;101890.91;107283;1257;99208;-60
2023/02/12 01:43:12;;;;;;;4.10;1.50;;;;;;;1.33;81.61;101892.86;107281;1259;87013;-61
2023/02/12 01:45:55;;;;;;;;;;;;;;;1.31;81.69;101888.93;107292;1259;95105;-58
2023/02/12 01:48:37;;;;;;;6.80;3.60;;;;;;;1.30;81.71;101893.77;107291;1257;79256;-58
2023/02/12 01:51:25;;;;;;;7.10;3.40;;;;;;;1.22;81.65;101891.92;107301;1257;80516;-58
2023/02/12 01:54:13;;;;;;;9.60;4.20;;;;;;;1.17;81.67;101887.27;107276;1259;99003;-60
2023/02/12 01:56:56;;;;;;;22.90;11.60;;;;;;;1.17;81.59;101892.80;107324;1257;87634;-60
2023/02/12 01:59:43;;;;;;;18.10;8.70;;;;;;;1.13;81.52;101899.73;107309;1259;94577;-59
2023/02/12 02:02:25;;;;;;;5.10;2.10;;;;;;;1.17;81.48;101905.02;107319;1256;79824;-59
2023/02/12 02:05:07;;;;;;;5.90;2.50;;;;;;;1.22;81.54;101907.23;107344;1257;81705;-56
2023/02/12 02:07:51;;;;;;;3.60;1.80;;;;;;;1.26;81.42;101913.52;107274;1259;99631;-57
2023/02/12 02:10:33;;;;;;;7.10;3.00;;;;;;;1.28;81.43;101915.35;107325;1259;88618;-61
2023/02/12 02:16:18;;;;;;;22.60;12.10;;;;;;;1.28;81.49;101922.45;107320;1256;79303;-59
2023/02/12 02:19:09;;;;;;;27.90;14.20;;;;;;;1.24;81.48;101937.77;107295;1257;82396;-60
2023/02/12 02:22:20;;;;;;;9.20;4.90;;;;;;;1.21;81.47;101938.52;107320;1259;98865;-59
2023/02/12 02:25:47;;;;;;;6.20;3.50;;;;;;;1.17;81.39;101935.71;107291;1259;87154;-59
2023/02/12 02:29:00;;;;;;;4.00;1.70;;;;;;;1.14;81.38;101945.09;107246;1257;94383;-60
2023/02/12 02:31:41;;;;;;;4.20;2.20;;;;;;;1.20;81.29;101957.89;107310;1257;78380;-60
2023/02/12 02:34:40;;;;;;;7.30;4.10;;;;;;;1.23;81.36;101968.19;107271;1257;82968;-61
2023/02/12 02:37:29;;;;;;;5.70;2.00;;;;;;;1.22;81.02;101971.61;107271;1257;96974;-57
2023/02/12 02:40:17;;;;;;;2.00;1.20;;;;;;;1.23;80.99;101977.22;107272;1259;88645;-57
2023/02/12 02:43:02;;;;;;;2.40;1.00;;;;;;;1.20;80.91;101982.55;107259;1259;95228;-58
2023/02/12 02:45:42;;;;;;;2.60;1.50;;;;;;;1.18;80.70;101985.17;107289;1259;79826;-60
2023/02/12 02:48:24;;;;;;;1.70;0.90;;;;;;;1.16;80.49;101988.09;107301;1257;81483;-60
2023/02/12 02:51:05;;;;;;;3.20;1.90;;;;;;;1.14;80.51;101991.08;107308;1259;96856;-58
2023/02/12 02:53:47;;;;;;;3.80;1.90;;;;;;;1.08;80.44;101995.32;107292;1257;89096;-56
2023/02/12 02:56:34;;;;;;;4.10;1.40;;;;;;;1.07;80.39;102007.10;107293;1259;94821;-60
2023/02/12 02:59:23;;;;;;;5.00;2.20;;;;;;;1.05;80.40;102027.96;107253;1260;81719;-60
2023/02/12 03:02:07;;;;;;;8.40;4.70;;;;;;;1.08;80.58;102032.55;107273;1257;82986;-58
2023/02/12 03:04:55;;;;;;;3.70;2.00;;;;;;;1.12;80.61;102033.56;107277;1256;99805;-58
2023/02/12 03:07:44;;;;;;;2.00;1.20;;;;;;;1.15;80.63;102033.77;107260;1259;88581;-59
2023/02/12 03:10:22;;;;;;;3.90;2.20;;;;;;;1.12;80.56;102043.15;107315;1259;93709;-60
2023/02/12 03:13:07;;;;;;;3.50;1.60;;;;;;;1.09;80.46;102051.46;107303;1259;79253;-61
2023/02/12 03:15:51;;;;;;;3.40;1.60;;;;;;;1.07;80.32;102063.00;107327;1257;82592;-61
2023/02/12 03:18:39;;;;;;;3.70;1.50;;;;;;;1.05;80.16;102065.40;107263;1260;95947;-60
2023/02/12 03:21:27;;;;;;;3.50;1.40;;;;;;;1.01;80.12;102065.46;107278;1259;87586;-59
2023/02/12 03:24:12;;;;;;;1.50;0.90;;;;;;;1.01;79.86;102066.52;107259;1260;95360;-58
2023/02/12 03:26:59;;;;;;;2.10;0.90;;;;;;;1.00;79.93;102064.98;107262;1259;80569;-56
2023/02/12 03:29:41;;;;;;;1.20;0.80;;;;;;;1.00;79.81;102067.85;107278;1256;81336;-60
2023/02/12 03:32:31;;;;;;;2.10;0.70;;;;;;;1.02;79.64;102081.17;107294;1259;98147;-59
2023/02/12 03:35:18;;;;;;;1.50;0.60;;;;;;;1.03;79.69;102080.23;107315;1259;89181;-58
2023/02/12 03:38:09;;;;;;;1.70;0.70;;;;;;;1.06;79.62;102081.67;107261;1257;94235;-58
2023/02/12 03:40:54;;;;;;;2.40;1.00;;;;;;;1.02;79.66;102086.29;107306;1258;79746;-59
2023/02/12 03:43:42;;;;;;;2.30;0.70;;;;;;;1.04;79.50;102093.50;107265;1259;81307;-60
2023/02/12 03:46:32;;;;;;;1.60;0.90;;;;;;;1.01;79.53;102099.88;107322;1259;97883;-58
2023/02/12 03:49:22;;;;;;;1.70;0.80;;;;;;;0.98;79.45;102099.66;107245;1257;88545;-58
2023/02/12 03:52:05;;;;;;;2.40;0.80;;;;;;;0.94;79.38;102106.84;107257;1257;95314;-59
2023/02/12 03:54:44;;;;;;;1.20;0.70;;;;;;;0.94;79.58;102116.96;107334;1259;80240;-59
2023/02/12 03:57:22;;;;;;;2.40;0.60;;;;;;;0.89;79.41;102126.60;107296;1259;79470;-58
2023/02/12 03:59:58;;;;;;;2.50;0.80;;;;;;;0.90;79.55;102138.47;107291;1257;99075;-57
2023/02/12 04:02:38;;;;;;;2.50;0.80;;;;;;;0.92;79.52;102140.46;107291;1257;87368;-57
2023/02/12 04:05:23;;;;;;;1.30;0.60;;;;;;;0.90;79.43;102139.68;107434;1257;95411;-57
2023/02/12 04:08:10;;;;;;;3.00;0.90;;;;;;;0.93;79.52;102139.14;107420;1259;80001;-59
2023/02/12 04:11:02;;;;;;;1.40;0.80;;;;;;;0.97;79.56;102146.91;107465;1254;83123;-58
2023/02/12 04:13:49;;;;;;;1.60;0.70;;;;;;;0.98;79.48;102151.10;107433;1256;99158;-57
2023/02/12 04:16:34;;;;;;;1.70;0.70;;;;;;;0.97;79.35;102150.98;107425;1256;88983;-58
2023/02/12 04:19:19;;;;;;;2.10;0.90;;;;;;;0.94;79.13;102149.60;107398;1254;95852;-56
2023/02/12 04:22:18;;;;;;;1.00;0.80;;;;;;;0.88;79.27;102144.23;107392;1259;79173;-60
2023/02/12 04:25:16;;;;;;;2.30;1.20;;;;;;;0.83;79.12;102149.13;107385;1255;82433;-59
2023/02/12 04:28:01;;;;;;;2.30;1.00;;;;;;;0.79;79.18;102153.27;107400;1259;98401;-59
2023/02/12 04:30:44;;;;;;;1.20;0.70;;;;;;;0.81;79.14;102161.86;107453;1259;89101;-59
2023/02/12 04:33:35;;;;;;;2.70;1.40;;;;;;;0.80;79.10;102161.19;107407;1258;95145;-61
2023/02/12 04:36:20;;;;;;;2.30;0.80;;;;;;;0.81;79.24;102166.77;107468;1258;80194;-59
2023/02/12 04:39:07;;;;;;;3.40;1.10;;;;;;;0.85;79.24;102168.71;107368;1254;83236;-60
2023/02/12 04:41:50;;;;;;;1.70;0.90;;;;;;;0.84;79.19;102167.00;107554;1255;99121;-60
2023/02/12 04:44:36;;;;;;;2.00;0.80;;;;;;;0.82;79.07;102168.86;107577;1254;87548;-59
2023/02/12 04:47:14;;;;;;;1.80;1.10;;;;;;;0.79;79.00;102170.67;107497;1255;94663;-60
2023/02/12 04:49:59;;;;;;;2.50;0.90;;;;;;;0.75;79.09;102169.80;107514;1260;80119;-57
2023/02/12 04:52:45;;;;;;;1.30;0.90;;;;;;;0.75;78.99;102177.26;106974;1257;81330;-57
2023/02/12 04:55:29;;;;;;;2.90;1.20;;;;;;;0.75;79.06;102186.48;107579;1257;99331;-60
2023/02/12 04:58:15;;;;;;;1.50;0.80;;;;;;;0.71;79.06;102184.55;107517;1258;89383;-58
2023/02/12 05:00:57;;;;;;;2.10;0.80;;;;;;;0.69;79.11;102193.16;107525;1258;94794;-58
2023/02/12 05:03:35;;;;;;;2.80;1.00;;;;;;;0.67;79.06;102201.48;107508;1255;81009;-57
2023/02/12 05:06:12;;;;;;;2.00;0.70;;;;;;;0.63;79.19;102210.02;107565;1255;82383;-58
2023/02/12 05:08:55;;;;;;;0.90;0.80;;;;;;;0.66;79.14;102207.53;107536;1258;96612;-57
2023/02/12 05:11:35;;;;;;;1.70;0.90;;;;;;;0.69;78.94;102212.67;107540;1258;87197;-57
2023/02/12 05:14:23;;;;;;;2.70;1.10;;;;;;;0.70;79.09;102224.35;107544;1254;95240;-59
2023/02/12 05:17:07;;;;;;;3.20;1.10;;;;;;;0.70;78.89;102226.84;107509;1256;77764;-59
2023/02/12 05:19:47;;;;;;;2.00;0.90;;;;;;;0.67;79.02;102234.96;107565;1254;82236;-57
2023/02/12 05:22:29;;;;;;;2.80;1.10;;;;;;;0.64;79.05;102238.48;107548;1257;98466;-57
2023/02/12 05:25:10;;;;;;;4.60;1.40;;;;;;;0.61;79.08;102241.44;107586;1266;89158;-60
2023/02/12 05:27:47;;;;;;;1.90;1.30;;;;;;;0.59;78.91;102244.23;107522;1255;95138;-59
2023/02/12 05:30:23;;;;;;;2.30;1.50;;;;;;;0.53;79.08;102243.30;107560;1254;80115;-58
2023/02/12 05:33:05;;;;;;;2.70;1.40;;;;;;;0.49;78.90;102237.11;107554;1254;82027;-59
2023/02/12 05:35:45;;;;;;;1.20;0.90;;;;;;;0.49;79.02;102249.33;107455;1254;98424;-57
2023/02/12 05:38:32;;;;;;;1.70;1.40;;;;;;;0.51;79.02;102247.48;107518;1257;87155;-57
2023/02/12 05:41:10;;;;;;;2.20;1.30;;;;;;;0.52;79.16;102257.33;107569;1254;94123;-56
2023/02/12 05:43:48;;;;;;;3.20;1.10;;;;;;;0.51;79.04;102262.89;107447;1254;78987;-57
2023/02/12 05:46:32;;;;;;;2.50;1.30;;;;;;;0.49;79.10;102265.48;107587;1254;81936;-58
2023/02/12 05:49:12;;;;;;;2.00;1.30;;;;;;;0.47;78.92;102269.50;107546;1257;97556;-58
2023/02/12 05:51:58;;;;;;;2.90;1.20;;;;;;;0.44;78.88;102279.95;107537;1257;88831;-58
2023/02/12 05:54:38;;;;;;;;;;;;;;;0.44;78.75;102288.27;107553;1257;95944;-57
2023/02/12 05:57:25;;;;;;;3.20;2.10;;;;;;;0.44;78.53;102298.55;107547;1254;78520;-56
2023/02/12 06:00:08;;;;;;;2.10;1.20;;;;;;;0.42;78.57;102301.98;107578;1254;83383;-58
2023/02/12 06:02:48;;;;;;;2.20;1.20;;;;;;;0.38;78.73;102307.72;107529;1257;97453;-58
2023/02/12 06:05:26;;;;;;;4.10;1.20;;;;;;;0.37;78.74;102313.80;107556;1254;88927;-62
2023/02/12 06:08:14;;;;;;;2.60;1.60;;;;;;;0.35;78.83;102319.05;107502;1257;94156;-61
2023/02/12 06:10:59;;;;;;;2.10;1.10;;;;;;;0.34;78.83;102326.15;107523;1257;81471;-57
2023/02/12 06:13:40;;;;;;;3.90;2.40;;;;;;;0.39;78.95;102334.63;107540;1257;82332;-58
2023/02/12 06:16:27;;;;;;;2.40;1.50;;;;;;;0.43;79.07;102329.97;107576;1254;99086;-60
2023/02/12 06:19:11;;;;;;;3.30;1.60;;;;;;;0.46;78.91;102330.67;107539;1254;88994;-60
2023/02/12 06:21:48;;;;;;;2.90;1.30;;;;;;;0.48;78.99;102328.45;107541;1255;93220;-58
2023/02/12 06:24:27;;;;;;;4.10;2.60;;;;;;;0.52;78.89;102334.12;107591;1254;78581;-61
2023/02/12 06:27:12;;;;;;;6.30;3.10;;;;;;;0.53;78.71;102340.98;107514;1254;83678;-61
2023/02/12 06:29:57;;;;;;;3.50;2.20;;;;;;;0.51;78.89;102342.48;107522;1254;98741;-60
2023/02/12 06:32:41;;;;;;;3.20;1.50;;;;;;;0.49;78.92;102349.83;107549;1254;87491;-60
2023/02/12 06:35:27;;;;;;;3.70;1.30;;;;;;;0.50;78.91;102352.79;107550;1254;95414;-57
2023/02/12 06:38:08;;;;;;;2.20;1.60;;;;;;;0.54;78.91;102348.56;107508;1253;79341;-57
2023/02/12 06:40:51;;;;;;;6.90;3.10;;;;;;;0.56;78.88;102350.54;107569;1253;81721;-60
2023/02/12 06:43:36;;;;;;;7.60;2.60;;;;;;;0.58;78.88;102359.14;107573;1256;97622;-60
2023/02/12 06:46:18;;;;;;;8.70;3.20;;;;;;;0.63;78.88;102353.92;107557;1256;87383;-59
2023/02/12 06:48:57;;;;;;;7.80;3.70;;;;;;;0.68;78.98;102357.05;107568;1258;94027;-57
2023/02/12 06:51:40;;;;;;;1.90;1.40;;;;;;;0.78;79.07;102359.55;107554;1257;81493;-59
2023/02/12 06:54:19;;;;;;;2.40;1.40;;;;;;;0.87;78.93;102357.50;107541;1257;82167;-59
2023/02/12 06:56:56;;;;;;;3.00;1.50;;;;;;;1.03;78.73;102359.67;107538;1254;99025;-57
2023/02/12 06:59:41;;;;;;;3.10;1.40;;;;;;;1.17;78.59;102361.35;107555;1256;89173;-58
2023/02/12 07:02:24;;;;;;;3.90;1.60;;;;;;;1.56;79.70;102364.06;107506;1254;95919;-59
2023/02/12 07:05:06;;;;;;;3.30;1.40;;;;;;;2.83;80.18;102359.52;107548;1258;79692;-59
2023/02/12 07:07:46;;;;;;;2.40;1.40;;;;;;;4.49;80.36;102361.66;107553;1256;83790;-58
2023/02/12 07:10:21;;;;;;;1.60;1.20;;;;;;;5.83;79.72;102357.67;107583;1254;99051;-57
2023/02/12 07:13:02;;;;;;;2.60;1.50;;;;;;;6.89;78.76;102356.85;107523;1254;86836;-58
2023/02/12 07:15:44;;;;;;;3.20;1.20;;;;;;;7.79;77.81;102359.16;107504;1257;94793;-57
2023/02/12 07:18:20;;;;;;;2.50;1.20;;;;;;;8.26;76.35;102365.12;107524;1254;77952;-58
2023/02/12 07:21:00;;;;;;;2.00;1.30;;;;;;;8.53;75.02;102368.23;107544;1257;82819;-61
2023/02/12 07:23:40;;;;;;;2.60;1.60;;;;;;;8.73;73.97;102360.61;107513;1257;96834;-60
2023/02/12 07:26:23;;;;;;;2.40;1.50;;;;;;;8.63;74.12;102368.52;107561;1254;87459;-57
2023/02/12 07:29:05;;;;;;;2.40;1.40;;;;;;;8.71;72.74;102371.77;107543;1254;94887;-58
2023/02/12 07:31:52;;;;;;;2.70;1.20;;;;;;;9.14;72.49;102366.66;107562;1254;81156;-58
2023/02/12 07:34:31;;;;;;;;;;;;;;;9.19;71.39;102358.63;107637;1254;83326;-59
2023/02/12 07:37:13;;;;;;;1.90;1.10;;;;;;;9.08;71.86;102356.95;107552;1257;98210;-58
2023/02/12 07:39:55;;;;;;;2.40;1.30;;;;;;;9.27;70.83;102353.08;107540;1254;89463;-61
2023/02/12 07:42:33;;;;;;;2.80;1.30;;;;;;;9.54;70.04;102355.23;107498;1257;95452;-61
2023/02/12 07:45:10;;;;;;;3.10;1.50;;;;;;;10.34;69.89;102359.41;107561;1254;78670;-57
2023/02/12 07:47:52;;;;;;;3.10;1.50;;;;;;;11.11;69.06;102363.73;107555;1257;82195;-58
2023/02/12 07:50:35;;;;;;;2.80;1.50;;;;;;;11.86;68.34;102364.73;107565;1254;98172;-62
2023/02/12 07:53:20;;;;;;;2.80;1.50;;;;;;;12.86;67.26;102370.77;107503;1254;89188;-62
2023/02/12 07:56:06;;;;;;;5.60;2.60;;;;;;;13.58;66.64;102374.72;107484;1258;94581;-62
2023/02/12 07:58:45;;;;;;;3.10;1.70;;;;;;;14.43;65.10;102376.48;107533;1257;80930;-62
2023/02/12 08:01:26;;;;;;;3.40;1.50;;;;;;;15.23;63.61;102372.60;107583;1253;81583;-61
2023/02/12 08:04:11;;;;;;;2.60;1.90;;;;;;;15.76;62.30;102371.40;107525;1257;97428;-62
2023/02/12 08:06:57;;;;;;;3.60;2.20;;;;;;;16.28;61.39;102379.27;107521;1254;89533;-58
2023/02/12 08:09:35;;;;;;;11.70;8.40;;;;;;;16.59;59.96;102383.42;107540;1254;95362;-61
2023/02/12 08:12:10;;;;;;;25.60;18.20;;;;;;;16.86;58.97;102391.37;107610;1254;78278;-62
2023/02/12 08:14:50;;;;;;;21.40;15.80;;;;;;;16.66;57.39;102391.42;107623;1254;83625;-61
2023/02/12 08:17:25;;;;;;;7.90;6.10;;;;;;;16.53;56.68;102395.88;107561;1254;98555;-61
2023/02/12 08:20:10;;;;;;;5.30;3.70;;;;;;;16.47;56.52;102403.14;107557;1257;89168;-62
2023/02/12 08:22:47;;;;;;;13.70;10.20;;;;;;;16.21;55.81;102400.35;107537;1256;94982;-62
2023/02/12 08:25:21;;;;;;;16.40;12.10;;;;;;;15.86;55.36;102401.08;107520;1256;81104;-61
2023/02/12 08:28:01;;;;;;;4.40;2.90;;;;;;;15.56;54.05;102407.34;107558;1253;80355;-59
2023/02/12 08:30:47;;;;;;;2.90;1.90;;;;;;;15.57;53.17;102410.44;107534;1254;98135;-59
2023/02/12 08:33:27;;;;;;;2.70;1.50;;;;;;;15.66;53.44;102404.15;107523;1254;88483;-58
2023/02/12 08:36:14;;;;;;;20.80;15.80;;;;;;;15.92;53.21;102410.02;107571;1254;94618;-61
2023/02/12 08:38:51;;;;;;;5.50;4.20;;;;;;;15.77;51.51;102402.86;107572;1256;79153;-61
2023/02/12 08:41:33;;;;;;;2.30;1.60;;;;;;;15.90;50.90;102401.02;107521;1257;82543;-60
2023/02/12 08:44:20;;;;;;;3.30;1.60;;;;;;;15.76;49.97;102397.55;107576;1252;97844;-60
2023/02/12 08:47:07;;;;;;;2.70;1.60;;;;;;;15.57;49.21;102394.09;107555;1256;89300;-61
2023/02/12 08:49:49;;;;;;;2.40;1.80;;;;;;;15.11;49.82;102394.35;107592;1252;94745;-68
2023/02/12 08:52:31;;;;;;;3.00;1.70;;;;;;;14.16;50.01;102391.82;107537;1256;80932;-59
2023/02/12 08:55:09;;;;;;;2.50;1.60;;;;;;;13.89;49.88;102390.36;107600;1256;83310;-59
2023/02/12 08:57:46;;;;;;;3.10;1.60;;;;;;;13.97;49.77;102393.10;107553;1254;99199;-60
2023/02/12 09:00:24;;;;;;;3.00;1.80;;;;;;;14.05;50.03;102397.70;107596;1256;88608;-54
2023/02/12 09:03:06;;;;;;;3.20;1.70;;;;;;;13.98;49.18;102410.99;107559;1256;94356;-57
2023/02/12 09:05:44;;;;;;;2.30;1.50;;;;;;;13.01;49.02;102419.86;107544;1256;80940;-61
2023/02/12 09:08:26;;;;;;;2.20;1.70;;;;;;;11.97;49.69;102421.11;107574;1253;82144;-60
2023/02/12 09:11:07;;;;;;;;;;;;;;;12.21;50.32;102421.45;107592;1253;99020;-61
2023/02/12 09:13:53;;;;;;;3.20;1.80;;;;;;;12.21;50.37;102419.68;107585;1253;88913;-61
2023/02/12 09:16:39;;;;;;;3.10;1.90;;;;;;;12.93;50.61;102421.23;107609;1254;95226;-56
2023/02/12 09:19:21;;;;;;;5.00;2.00;;;;;;;13.36;50.55;102414.22;107530;1253;80943;-59
2023/02/12 09:22:02;;;;;;;3.30;2.10;;;;;;;13.61;49.77;102419.05;107567;1256;82323;-60
2023/02/12 09:24:40;;;;;;;2.80;1.70;;;;;;;13.67;49.10;102419.88;107576;1256;98029;-61
2023/02/12 09:27:19;;;;;;;3.00;2.10;;;;;;;14.17;48.72;102427.77;107488;1254;88610;-61
2023/02/12 09:29:59;;;;;;;2.20;1.50;;;;;;;14.79;48.55;102427.93;107566;1254;92968;-60
2023/02/12 09:32:42;;;;;;;4.00;2.90;;;;;;;14.88;49.08;102432.91;107518;1256;79880;-59
2023/02/12 09:35:19;;;;;;;3.70;1.70;;;;;;;15.21;49.09;102434.30;107607;1254;80690;-58
2023/02/12 09:38:02;;;;;;;3.20;1.80;;;;;;;15.05;48.53;102438.14;107559;1254;99719;-61
2023/02/12 09:40:45;;;;;;;3.60;2.60;;;;;;;14.91;48.40;102442.77;107570;1254;89159;-57
2023/02/12 09:43:33;;;;;;;3.10;2.00;;;;;;;15.02;48.13;102439.74;107588;1253;94114;-58
2023/02/12 09:46:23;;;;;;;2.60;1.70;;;;;;;15.37;46.92;102434.80;107566;1253;80394;-59
2023/02/12 09:49:17;;;;;;;2.50;1.90;;;;;;;15.33;47.05;102434.90;107537;1254;81257;-59
2023/02/12 09:52:00;;;;;;;2.90;2.00;;;;;;;15.48;46.49;102436.88;107505;1254;98528;-58
2023/02/12 09:54:41;;;;;;;3.10;1.70;;;;;;;15.65;45.38;102439.14;107454;1257;87545;-58
2023/02/12 09:57:28;;;;;;;2.90;1.80;;;;;;;15.46;45.99;102436.80;107427;1254;94373;-59
2023/02/12 10:00:09;;;;;;;2.90;1.70;;;;;;;15.89;45.84;102441.30;107460;1254;81069;-61
2023/02/12 10:02:53;;;;;;;3.40;2.30;;;;;;;16.04;46.08;102439.42;107464;1253;83493;-58
2023/02/12 10:05:42;;;;;;;2.70;1.80;;;;;;;15.60;45.56;102439.59;107460;1257;98963;-56
2023/02/12 10:08:41;;;;;;;3.00;1.90;;;;;;;15.74;43.44;102436.50;107461;1253;87576;-57
2023/02/12 10:11:37;;;;;;;2.80;1.90;;;;;;;15.37;43.29;102436.11;107451;1257;95249;-60
2023/02/12 10:14:42;;;;;;;3.20;1.70;;;;;;;15.26;42.88;102441.38;107409;1257;79101;-59
2023/02/12 10:17:24;;;;;;;;;;;;;;;15.14;44.36;102442.40;107418;1253;81713;-58
2023/02/12 10:20:40;;;;;;;3.60;1.90;;;;;;;15.11;44.50;102442.91;107460;1257;96811;-60
2023/02/12 10:23:44;;;;;;;2.80;1.90;;;;;;;14.52;44.80;102446.14;107415;1257;88483;-62
2023/02/12 10:26:30;;;;;;;3.50;2.00;;;;;;;13.67;44.86;102452.52;107480;1254;93361;-60
2023/02/12 10:29:16;;;;;;;3.50;2.10;;;;;;;12.98;45.00;102458.58;107417;1254;81033;-59
2023/02/12 10:31:55;;;;;;;5.70;2.50;;;;;;;12.25;45.42;102454.27;107468;1253;83511;-63
2023/02/12 10:34:39;;;;;;;4.40;2.30;;;;;;;11.62;46.54;102456.43;107463;1253;99127;-61
2023/02/12 10:37:28;;;;;;;2.90;1.90;;;;;;;11.11;47.40;102448.00;107438;1254;88176;-62
2023/02/12 10:40:20;;;;;;;2.70;1.90;;;;;;;10.76;46.98;102442.98;107437;1253;95885;-60
2023/02/12 10:42:57;;;;;;;3.60;2.40;;;;;;;10.19;45.96;102444.70;107431;1257;80827;-57
2023/02/12 10:45:38;;;;;;;4.70;2.70;;;;;;;9.33;47.37;102456.17;107487;1253;81251;-59
2023/02/12 10:48:19;;;;;;;4.30;3.30;;;;;;;8.76;48.24;102455.80;107456;1257;98866;-59
2023/02/12 10:51:18;;;;;;;3.90;2.80;;;;;;;8.38;49.21;102452.48;107474;1257;89306;-61
2023/02/12 10:53:56;;;;;;;4.10;3.00;;;;;;;8.20;49.24;102453.95;107403;1257;95496;-62
2023/02/12 10:56:31;;;;;;;4.20;3.00;;;;;;;8.00;49.73;102449.81;107471;1253;80016;-60
2023/02/12 10:59:24;;;;;;;4.10;3.10;;;;;;;7.83;50.51;102458.74;107464;1253;82686;-62
2023/02/12 11:05:31;;;;;;;8.40;4.00;;;;;;;7.56;51.76;102464.27;100653;1264;937268;-57
2023/02/12 11:08:26;;;;;;;5.20;3.50;;;;;;;7.53;52.43;102456.59;106665;1264;93099;-63
2023/02/12 11:11:12;;;;;;;4.80;3.70;;;;;;;7.46;52.41;102453.60;106666;1264;80372;-56
2023/02/12 11:13:47;;;;;;;;;;;;;;;7.16;52.60;102455.77;106695;1264;82208;-63
2023/02/12 11:16:38;;;;;;;4.80;3.30;;;;;;;6.92;52.94;102459.04;106709;1264;99070;-62
2023/02/12 11:19:27;;;;;;;4.90;3.20;;;;;;;6.85;53.46;102463.34;106659;1267;88985;-58
2023/02/12 11:22:17;;;;;;;5.10;3.30;;;;;;;6.68;53.70;102461.57;106685;1267;94969;-58
2023/02/12 11:25:04;;;;;;;6.30;3.50;;;;;;;6.47;54.26;102468.52;106643;1265;79378;-61
2023/02/12 11:28:01;;;;;;;4.10;3.20;;;;;;;6.48;54.92;102469.27;106698;1268;82914;-65
2023/02/12 11:30:52;;;;;;;6.10;3.60;;;;;;;6.43;54.95;102463.45;106695;1266;97362;-61
2023/02/12 11:33:38;;;;;;;6.90;3.50;;;;;;;6.51;55.30;102465.17;106749;1264;86977;-63
2023/02/12 11:36:26;;;;;;;5.50;3.70;;;;;;;6.63;55.23;102458.75;106688;1264;95952;-60
2023/02/12 11:39:07;;;;;;;5.60;3.60;;;;;;;6.57;55.59;102450.56;106705;1263;79196;-57
2023/02/12 11:41:53;;;;;;;5.30;3.70;;;;;;;6.53;55.80;102447.10;106711;1264;81078;-57
2023/02/12 11:44:37;;;;;;;5.20;3.20;;;;;;;6.51;56.03;102440.29;106655;1265;98029;-62
2023/02/12 11:47:24;;;;;;;5.40;3.30;;;;;;;6.34;56.07;102435.62;106676;1264;89099;-64
2023/02/12 11:50:08;;;;;;;7.00;3.70;;;;;;;6.29;56.27;102432.40;106657;1267;95131;-58
2023/02/12 11:52:54;;;;;;;4.40;3.20;;;;;;;6.14;56.04;102431.96;106650;1267;79992;-57
2023/02/12 11:55:53;;;;;;;8.80;4.00;;;;;;;5.92;55.88;102429.96;106708;1264;83321;-55
2023/02/12 11:58:31;;;;;;;6.00;3.40;;;;;;;5.71;56.27;102430.58;106710;1264;98472;-60
2023/02/12 12:01:19;;;;;;;5.50;3.50;;;;;;;5.69;56.55;102431.05;106698;1267;87081;-59
2023/02/12 12:04:05;;;;;;;5.80;3.40;;;;;;;5.81;56.79;102432.30;106703;1267;92764;-61
2023/02/12 12:06:55;;;;;;;4.90;3.60;;;;;;;5.92;56.54;102432.61;106666;1265;79913;-53
2023/02/12 12:09:41;;;;;;;6.10;3.60;;;;;;;5.89;56.80;102438.02;106731;1264;83089;-62
2023/02/12 12:12:25;;;;;;;5.80;3.90;;;;;;;6.01;56.98;102439.67;106674;1264;98706;-62
2023/02/12 12:21:27;;;;;;;5.10;3.00;;;;;;;6.03;56.87;102416.48;106675;1267;79150;-62
2023/02/12 12:24:16;;;;;;;5.20;3.00;;;;;;;6.09;56.59;102410.14;106674;1265;83928;-63
2023/02/12 12:27:02;;;;;;;6.00;3.50;;;;;;;5.98;56.53;102404.82;106679;1264;98817;-62
2023/02/12 12:29:51;;;;;;;5.60;3.40;;;;;;;5.84;56.53;102407.63;106690;1267;86938;-63
2023/02/12 12:32:38;;;;;;;5.70;3.50;;;;;;;5.72;56.94;102408.46;106651;1268;94050;-57
2023/02/12 12:35:19;;;;;;;7.10;4.40;;;;;;;5.58;57.39;102407.70;106679;1267;78931;-63
2023/02/12 12:37:58;;;;;;;5.90;4.00;;;;;;;5.50;57.79;102411.13;106656;1264;83413;-63
2023/02/12 12:40:57;;;;;;;5.60;3.80;;;;;;;5.51;58.18;102404.27;106659;1264;98952;-59
2023/02/12 12:43:44;;;;;;;7.40;4.50;;;;;;;5.48;58.48;102411.09;106675;1267;88222;-64
2023/02/12 12:46:50;;;;;;;8.90;4.70;;;;;;;5.41;58.79;102405.39;106664;1267;95507;-62
2023/02/12 12:50:00;;;;;;;6.80;4.90;;;;;;;5.27;58.94;102405.40;106677;1265;79854;-60
2023/02/12 12:53:16;;;;;;;6.40;4.10;;;;;;;5.25;59.43;102404.52;105250;1268;2066404;-59
2023/02/12 12:56:22;;;;;;;6.70;4.00;;;;;;;5.17;59.49;102402.54;106696;1265;98719;-62
2023/02/12 12:59:27;;;;;;;8.00;4.50;;;;;;;5.13;59.57;102400.68;106702;1268;89048;-59
2023/02/12 13:06:23;;;;;;;8.50;4.70;;;;;;;5.03;60.01;102397.29;104001;1297;601094;-60